Gorst, Washington
Current Conditions -  °F | °C
As of 5:15 AM on Thursday 18 Dec 2014 (Local Time) from KPWT Reporting Station
Overcast Overcast  
Wind Chill: 40°   Ceiling: 500
Heat Index: 45°   Visibility: 7mi
Dew Point: 45°   Wind: 8mph
Humidity: 100%   Direction: 210°SSW
Pressure: 29.95"   Gusts: NA
Location:  47.5661°N, 122.637°W
Report Text: KPWT 181315Z AUTO 21007KT 7SM BKN005 OVC029 07/07 A2995 RMK AO1
Loading
Personal Weather Stations






























Interactive Weather Map New forecast layout! Learn more

10-Day Weather Forecast

Advertisements
Track Severe Weather on mobile